Time;durP1;ratioP1;P1;durP2;ratioP2;P2;SDS_P1;SDS_P2;PMS_P1;PMS_P2;Temp;Humidity;BMP_temperature;BMP_pressure;BME280_temperature;BME280_humidity;BME280_pressure;Samples;Min_cycle;Max_cycle;Signal;HPM_P1;HPM_P2
2022/06/17 00:02:17;;;;;;;5.27;1.60;;;19.90;42.90;;;;;;5053030;28;20479;-76
2022/06/17 00:05:03;;;;;;;2.20;1.07;;;19.90;42.30;;;;;;5054991;28;20481;-75
2022/06/17 00:07:49;;;;;;;5.17;1.53;;;19.80;41.40;;;;;;5051542;28;20467;-75
2022/06/17 00:10:35;;;;;;;4.43;1.27;;;19.80;42.30;;;;;;5058196;28;20419;-75
2022/06/17 00:13:22;;;;;;;7.83;1.73;;;19.70;42.90;;;;;;5059201;28;20467;-75
2022/06/17 00:16:11;;;;;;;2.67;1.40;;;19.80;42.30;;;;;;5054705;28;20439;-75
2022/06/17 00:18:58;;;;;;;8.70;1.40;;;19.80;42.00;;;;;;5049652;28;20956;-75
2022/06/17 00:21:46;;;;;;;5.73;1.40;;;19.70;42.60;;;;;;5051778;28;20471;-76
2022/06/17 00:24:33;;;;;;;2.83;1.80;;;19.60;43.60;;;;;;5053485;28;20427;-74
2022/06/17 00:27:18;;;;;;;2.37;1.53;;;19.60;43.80;;;;;;5055273;28;20518;-76
2022/06/17 00:30:14;;;;;;;2.63;1.20;;;19.60;44.80;;;;;;5054699;28;20423;-76
2022/06/17 00:33:02;;;;;;;2.90;1.50;;;19.60;45.50;;;;;;5064102;28;20494;-76
2022/06/17 00:35:51;;;;;;;5.53;1.40;;;19.50;47.20;;;;;;5054918;28;20431;-76
2022/06/17 00:38:37;;;;;;;3.17;1.40;;;19.40;48.30;;;;;;5045335;28;20452;-76
2022/06/17 00:41:29;;;;;;;2.47;1.63;;;19.40;50.00;;;;;;5069825;28;20509;-76
2022/06/17 00:44:25;;;;;;;2.87;1.30;;;19.30;50.80;;;;;;5062502;28;20451;-76
2022/06/17 00:47:20;;;;;;;4.00;1.30;;;19.20;51.30;;;;;;5061767;28;20534;-76
2022/06/17 00:50:13;;;;;;;2.90;1.60;;;19.00;51.10;;;;;;5062693;28;20416;-75
2022/06/17 00:53:12;;;;;;;2.53;1.30;;;18.70;53.00;;;;;;5060698;28;20490;-75
2022/06/17 00:56:02;;;;;;;3.80;1.57;;;18.50;54.30;;;;;;5060780;28;20434;-74
2022/06/17 00:59:01;;;;;;;2.97;1.50;;;18.10;55.90;;;;;;5050776;28;20837;-75
2022/06/17 01:01:51;;;;;;;2.77;1.40;;;17.90;57.80;;;;;;5057376;28;20938;-75
2022/06/17 01:04:45;;;;;;;6.70;1.70;;;17.70;59.90;;;;;;5057227;28;20426;-76
2022/06/17 01:07:36;;;;;;;3.30;1.50;;;17.50;60.60;;;;;;5048624;28;20468;-75
2022/06/17 01:10:22;;;;;;;4.73;1.20;;;17.40;61.80;;;;;;5057412;28;20438;-75
2022/06/17 01:13:09;;;;;;;2.97;1.20;;;17.50;62.00;;;;;;5054532;28;20475;-75
2022/06/17 01:15:54;;;;;;;3.23;1.60;;;17.40;61.80;;;;;;5059891;28;20447;-75
2022/06/17 01:18:44;;;;;;;5.20;1.80;;;17.30;61.90;;;;;;5052134;28;20443;-75
2022/06/17 01:21:37;;;;;;;3.50;1.60;;;17.10;62.60;;;;;;5059299;28;20582;-75
2022/06/17 01:24:25;;;;;;;3.97;1.20;;;17.00;63.80;;;;;;5052288;28;20501;-76
2022/06/17 01:27:11;;;;;;;3.30;1.50;;;16.90;64.90;;;;;;5049599;28;20798;-75
2022/06/17 01:29:57;;;;;;;2.20;1.10;;;16.90;65.60;;;;;;5064311;28;20471;-75
2022/06/17 01:32:49;;;;;;;4.83;2.73;;;16.90;65.40;;;;;;5059799;28;20968;-76
2022/06/17 01:35:38;;;;;;;3.70;1.27;;;17.10;65.70;;;;;;5056872;28;20501;-75
2022/06/17 01:38:25;;;;;;;3.80;1.13;;;17.00;65.60;;;;;;5053875;28;20498;-75
2022/06/17 01:41:14;;;;;;;2.67;1.47;;;16.90;66.30;;;;;;5059403;28;20636;-75
2022/06/17 01:44:02;;;;;;;3.23;1.70;;;17.00;66.20;;;;;;5060085;28;20578;-75
2022/06/17 01:46:52;;;;;;;2.73;1.40;;;16.90;66.50;;;;;;5048671;28;20451;-75
2022/06/17 01:49:41;;;;;;;4.67;2.00;;;16.90;66.80;;;;;;5049786;28;20610;-74
2022/06/17 01:52:32;;;;;;;2.40;1.40;;;16.90;67.30;;;;;;5058188;28;20444;-76
2022/06/17 01:55:22;;;;;;;4.43;1.40;;;16.80;67.20;;;;;;5054842;28;20801;-75
2022/06/17 01:58:14;;;;;;;3.00;1.50;;;16.80;67.60;;;;;;5051296;28;20451;-76
2022/06/17 02:01:01;;;;;;;4.00;2.03;;;16.80;68.00;;;;;;5057066;28;20448;-75
2022/06/17 02:03:52;;;;;;;4.30;1.70;;;16.70;68.10;;;;;;5050877;28;20439;-75
2022/06/17 02:06:42;;;;;;;6.73;1.67;;;16.50;68.40;;;;;;5048270;28;20452;-75
2022/06/17 02:09:28;;;;;;;8.87;1.57;;;16.40;68.90;;;;;;5061268;28;20478;-75
2022/06/17 02:12:17;;;;;;;3.40;1.30;;;16.40;69.80;;;;;;5060371;28;20446;-75
2022/06/17 02:15:05;;;;;;;3.30;1.60;;;16.10;71.10;;;;;;5058774;28;20470;-75
2022/06/17 02:17:53;;;;;;;2.83;1.73;;;16.10;71.40;;;;;;5047026;28;20490;-74
2022/06/17 02:20:39;;;;;;;3.00;1.50;;;16.10;71.60;;;;;;5046767;28;20498;-75
2022/06/17 02:23:28;;;;;;;4.40;1.80;;;16.20;71.50;;;;;;5053051;28;20444;-75
2022/06/17 02:26:15;;;;;;;6.40;2.17;;;16.10;71.80;;;;;;5053038;28;21167;-75
2022/06/17 02:29:03;;;;;;;4.00;1.60;;;16.20;71.50;;;;;;5066490;28;20549;-75
2022/06/17 02:31:50;;;;;;;6.73;2.43;;;16.10;72.00;;;;;;5058855;28;20447;-75
2022/06/17 02:34:40;;;;;;;6.50;1.87;;;16.20;71.70;;;;;;5060551;28;20415;-75
2022/06/17 02:37:26;;;;;;;2.80;1.60;;;16.10;72.10;;;;;;5055173;28;20846;-75
2022/06/17 02:40:26;;;;;;;2.97;1.53;;;16.00;72.80;;;;;;5062990;28;20514;-75
2022/06/17 02:43:14;;;;;;;4.27;1.53;;;16.00;73.30;;;;;;5052211;28;20475;-74
2022/06/17 02:46:06;;;;;;;2.03;1.43;;;15.90;73.10;;;;;;5052362;28;20460;-75
2022/06/17 02:48:55;;;;;;;2.67;1.93;;;15.80;73.90;;;;;;5061240;28;20498;-75
2022/06/17 02:51:43;;;;;;;5.10;2.03;;;15.80;73.90;;;;;;5053840;28;20983;-75
2022/06/17 02:54:34;;;;;;;4.20;1.80;;;15.60;75.10;;;;;;5052759;28;20517;-75
2022/06/17 02:57:24;;;;;;;3.53;1.50;;;15.60;76.90;;;;;;5049030;28;20451;-75
2022/06/17 03:00:14;;;;;;;5.90;2.13;;;15.50;76.40;;;;;;5054490;28;20489;-76
2022/06/17 03:03:05;;;;;;;2.60;1.40;;;15.50;77.00;;;;;;5048130;28;21098;-74
2022/06/17 03:05:52;;;;;;;4.30;1.67;;;15.50;77.60;;;;;;5043786;28;20451;-75
2022/06/17 03:08:41;;;;;;;4.50;1.60;;;15.50;77.40;;;;;;5052263;28;20454;-75
2022/06/17 03:11:27;;;;;;;3.27;1.83;;;15.60;77.30;;;;;;5045095;28;20475;-75
2022/06/17 03:14:13;;;;;;;8.13;2.13;;;15.60;76.90;;;;;;5048444;28;20455;-74
2022/06/17 03:17:03;;;;;;;4.03;2.20;;;15.70;76.70;;;;;;5046051;28;20545;-75
2022/06/17 03:19:49;;;;;;;3.17;1.77;;;15.60;77.10;;;;;;5056783;28;20536;-76
2022/06/17 03:22:37;;;;;;;3.23;1.50;;;15.50;77.40;;;;;;5056852;28;20538;-75
2022/06/17 03:25:26;;;;;;;5.80;1.80;;;15.60;77.00;;;;;;5041847;28;20558;-75
2022/06/17 03:28:16;;;;;;;4.97;1.60;;;15.70;76.50;;;;;;5055830;28;20446;-75
2022/06/17 03:31:07;;;;;;;8.63;2.17;;;15.60;77.00;;;;;;5055421;28;21091;-75
2022/06/17 03:33:58;;;;;;;2.93;1.83;;;15.50;77.50;;;;;;5056697;28;20502;-75
2022/06/17 03:36:48;;;;;;;7.20;1.73;;;15.40;77.70;;;;;;5042176;28;20459;-75
2022/06/17 03:39:38;;;;;;;9.73;1.90;;;15.50;78.40;;;;;;5061697;28;20463;-75
2022/06/17 03:42:31;;;;;;;4.20;1.40;;;15.40;78.50;;;;;;5064874;28;20994;-75
2022/06/17 03:45:20;;;;;;;3.57;1.70;;;15.40;79.80;;;;;;5052965;28;20505;-75
2022/06/17 03:48:14;;;;;;;5.53;1.70;;;15.30;79.90;;;;;;5057207;28;20442;-74
2022/06/17 03:51:00;;;;;;;5.77;2.30;;;15.30;80.10;;;;;;5058083;28;20443;-74
2022/06/17 03:53:47;;;;;;;3.07;1.83;;;15.50;80.20;;;;;;5049812;28;20455;-74
2022/06/17 03:56:36;;;;;;;3.70;1.50;;;15.50;80.20;;;;;;5055562;28;20435;-76
2022/06/17 03:59:26;;;;;;;3.87;2.13;;;15.40;80.50;;;;;;5061287;28;20763;-77
2022/06/17 04:02:14;;;;;;;2.53;1.80;;;15.40;81.20;;;;;;5055736;28;20463;-75
2022/06/17 04:05:04;;;;;;;2.23;1.57;;;15.40;81.70;;;;;;5046852;28;20443;-75
2022/06/17 04:07:50;;;;;;;2.50;1.60;;;15.40;81.40;;;;;;5051693;28;20447;-75
2022/06/17 04:10:36;;;;;;;3.30;1.60;;;15.50;81.40;;;;;;5056869;28;20843;-75
2022/06/17 04:13:29;;;;;;;3.33;1.83;;;15.70;81.60;;;;;;5054299;28;20446;-75
2022/06/17 04:16:20;;;;;;;5.00;1.70;;;15.90;80.80;;;;;;5049230;28;20541;-75
2022/06/17 04:19:16;;;;;;;6.53;1.70;;;15.80;80.50;;;;;;5054335;28;20432;-75
2022/06/17 04:22:14;;;;;;;3.60;1.80;;;15.80;80.90;;;;;;5050883;28;20471;-74
2022/06/17 04:25:04;;;;;;;3.90;1.93;;;15.90;81.40;;;;;;5047222;28;20446;-75
2022/06/17 04:27:59;;;;;;;3.20;1.70;;;15.80;81.50;;;;;;5056623;28;20447;-75
2022/06/17 04:30:50;;;;;;;3.10;2.00;;;15.70;81.90;;;;;;5058642;28;20479;-75
2022/06/17 04:33:41;;;;;;;3.07;2.17;;;15.90;82.40;;;;;;5049854;28;20476;-74
2022/06/17 04:36:31;;;;;;;2.67;1.90;;;15.80;82.30;;;;;;5062800;28;20423;-75
2022/06/17 04:39:24;;;;;;;4.63;1.80;;;15.90;81.80;;;;;;5062390;28;20538;-76
2022/06/17 04:42:16;;;;;;;3.00;1.80;;;16.00;82.70;;;;;;5065257;28;20463;-75
2022/06/17 04:45:02;;;;;;;5.17;2.10;;;16.10;82.10;;;;;;5052497;28;20447;-75
2022/06/17 04:47:49;;;;;;;4.97;1.70;;;16.20;81.70;;;;;;5054457;28;20595;-75
2022/06/17 04:50:35;;;;;;;5.73;1.77;;;16.30;81.80;;;;;;5054744;28;20467;-76
2022/06/17 04:53:20;;;;;;;2.67;1.60;;;16.40;81.90;;;;;;5048218;28;20625;-75
2022/06/17 04:56:09;;;;;;;4.23;1.87;;;16.50;81.70;;;;;;5054366;28;20454;-75
2022/06/17 04:58:55;;;;;;;4.20;2.60;;;16.60;81.70;;;;;;5056694;28;20440;-75
2022/06/17 05:01:41;;;;;;;3.87;1.90;;;16.70;81.70;;;;;;5056989;28;20504;-75
2022/06/17 05:04:28;;;;;;;3.20;1.70;;;16.80;81.30;;;;;;5053651;28;20932;-75
2022/06/17 05:07:15;;;;;;;4.80;2.70;;;16.90;81.70;;;;;;5052596;28;20451;-75
2022/06/17 05:10:04;;;;;;;8.40;3.57;;;16.90;81.70;;;;;;5052666;28;20479;-75
2022/06/17 05:12:56;;;;;;;3.07;2.30;;;17.00;81.50;;;;;;5056334;28;20883;-75
2022/06/17 05:15:42;;;;;;;2.80;1.80;;;17.10;80.70;;;;;;5054121;28;20450;-75
2022/06/17 05:18:28;;;;;;;3.53;1.87;;;17.10;79.50;;;;;;5058844;28;20777;-76
2022/06/17 05:21:19;;;;;;;3.90;1.87;;;17.20;78.70;;;;;;5060705;28;21480;-75
2022/06/17 05:24:06;;;;;;;7.50;2.77;;;17.30;78.30;;;;;;5049895;28;20498;-75
2022/06/17 05:26:52;;;;;;;3.53;2.10;;;17.50;81.00;;;;;;5048525;28;20517;-75
2022/06/17 05:29:37;;;;;;;5.40;2.60;;;17.60;80.10;;;;;;5055557;28;20599;-75
2022/06/17 05:32:24;;;;;;;10.33;2.10;;;17.70;79.90;;;;;;5052041;28;20496;-75
2022/06/17 05:35:09;;;;;;;6.23;2.23;;;17.80;77.60;;;;;;5053182;28;20598;-75
2022/06/17 05:37:56;;;;;;;3.70;1.77;;;17.90;79.00;;;;;;5053395;28;20972;-75
2022/06/17 05:40:43;;;;;;;3.27;1.80;;;18.10;78.10;;;;;;5053814;28;20438;-75
2022/06/17 05:43:29;;;;;;;2.93;1.90;;;18.20;74.00;;;;;;5046456;28;20549;-75
2022/06/17 05:46:15;;;;;;;4.27;2.00;;;18.20;73.10;;;;;;5062622;28;20593;-75
2022/06/17 05:49:00;;;;;;;4.03;2.10;;;18.40;73.90;;;;;;5050928;28;20424;-75
2022/06/17 05:51:46;;;;;;;4.00;1.80;;;18.50;74.70;;;;;;5054839;28;20482;-75
2022/06/17 05:54:33;;;;;;;4.77;2.10;;;18.60;73.50;;;;;;5045088;28;20602;-75
2022/06/17 05:57:20;;;;;;;3.43;1.90;;;18.70;71.40;;;;;;5063282;28;20457;-75
2022/06/17 06:00:07;;;;;;;9.60;1.70;;;18.90;72.60;;;;;;5054033;28;20499;-75
2022/06/17 06:02:57;;;;;;;4.13;1.87;;;19.00;72.60;;;;;;5050364;28;20499;-77
2022/06/17 06:05:42;;;;;;;4.97;2.13;;;19.10;72.80;;;;;;5051817;28;20451;-73
2022/06/17 06:08:28;;;;;;;3.57;1.67;;;19.00;72.80;;;;;;5055164;28;20446;-72
2022/06/17 06:11:15;;;;;;;7.73;1.80;;;19.10;71.20;;;;;;5052883;28;20845;-72
2022/06/17 06:14:00;;;;;;;5.00;2.10;;;19.20;69.20;;;;;;5049668;28;20565;-72
2022/06/17 06:16:46;;;;;;;6.03;1.90;;;19.30;68.70;;;;;;5051982;28;20967;-74
2022/06/17 06:19:32;;;;;;;4.07;1.83;;;19.40;68.50;;;;;;5053837;28;20444;-75
2022/06/17 06:22:17;;;;;;;3.00;1.67;;;19.50;67.40;;;;;;5047706;28;20480;-75
2022/06/17 06:25:03;;;;;;;5.40;2.30;;;19.60;69.00;;;;;;5052336;28;20440;-75
2022/06/17 06:27:51;;;;;;;4.80;2.40;;;19.60;66.90;;;;;;5056819;28;20455;-76
2022/06/17 06:30:36;;;;;;;5.43;1.80;;;19.60;69.60;;;;;;5058099;28;20450;-76
2022/06/17 06:33:22;;;;;;;3.00;1.97;;;19.60;70.00;;;;;;5045925;28;20312;-75
2022/06/17 06:36:08;;;;;;;2.93;1.63;;;19.80;69.00;;;;;;5064512;28;20469;-75
2022/06/17 06:38:53;;;;;;;3.27;1.67;;;20.00;67.80;;;;;;5063129;28;20476;-75
2022/06/17 06:41:39;;;;;;;4.37;2.13;;;20.20;68.70;;;;;;5045340;28;20618;-75
2022/06/17 06:44:26;;;;;;;4.60;1.80;;;20.40;63.10;;;;;;5052609;28;20423;-74
2022/06/17 06:47:13;;;;;;;2.53;1.47;;;20.60;63.80;;;;;;5060507;28;20451;-75
2022/06/17 06:49:58;;;;;;;4.43;1.70;;;20.80;61.60;;;;;;5047565;28;20479;-76
2022/06/17 06:52:45;;;;;;;5.07;1.60;;;21.00;54.40;;;;;;5042036;28;20463;-75
2022/06/17 06:55:30;;;;;;;4.57;1.90;;;21.10;53.20;;;;;;5043871;28;20455;-75
2022/06/17 06:58:19;;;;;;;5.03;2.00;;;21.20;54.60;;;;;;5050938;28;20808;-75
2022/06/17 07:01:06;;;;;;;3.10;1.50;;;21.30;48.80;;;;;;5048477;28;20463;-76
2022/06/17 07:03:52;;;;;;;3.60;1.40;;;21.40;49.60;;;;;;5050401;28;20439;-75
2022/06/17 07:06:38;;;;;;;3.50;1.43;;;21.50;49.00;;;;;;5051149;28;20428;-75
2022/06/17 07:09:25;;;;;;;3.77;1.60;;;21.60;48.30;;;;;;5055441;28;20463;-75
2022/06/17 07:12:11;;;;;;;4.50;1.30;;;21.60;54.70;;;;;;5046160;28;20471;-75
2022/06/17 07:14:57;;;;;;;4.90;2.13;;;21.70;49.30;;;;;;5056882;28;20428;-75
2022/06/17 07:17:55;;;;;;;4.63;1.77;;;21.70;50.80;;;;;;5063355;28;20586;-75
2022/06/17 07:20:44;;;;;;;4.10;1.50;;;21.90;49.10;;;;;;5050844;28;20839;-75
2022/06/17 07:23:34;;;;;;;2.57;1.40;;;22.00;45.80;;;;;;5048233;28;20467;-75
2022/06/17 07:26:22;;;;;;;4.77;2.03;;;22.10;44.90;;;;;;5058358;28;20956;-75
2022/06/17 07:29:08;;;;;;;3.33;1.50;;;22.10;44.00;;;;;;5053152;28;20466;-76
2022/06/17 07:31:54;;;;;;;3.33;1.80;;;22.20;39.40;;;;;;5053762;28;20566;-75
2022/06/17 07:34:41;;;;;;;3.67;1.83;;;22.10;39.20;;;;;;5052193;28;21034;-75
2022/06/17 07:40:30;;;;;;;4.00;1.30;;;22.20;42.90;;;;;;5043322;28;20841;-72
2022/06/17 07:43:16;;;;;;;4.23;1.53;;;22.30;43.30;;;;;;5046530;28;20553;-72
2022/06/17 07:46:03;;;;;;;9.00;2.30;;;22.40;42.20;;;;;;5051865;28;20428;-72
2022/06/17 07:48:49;;;;;;;5.57;1.60;;;22.50;42.20;;;;;;5048481;28;20447;-76
2022/06/17 07:51:36;;;;;;;6.30;1.90;;;22.70;41.10;;;;;;5055540;28;20546;-75
2022/06/17 07:54:22;;;;;;;2.53;1.47;;;22.80;41.30;;;;;;5049155;28;20498;-75
2022/06/17 07:57:07;;;;;;;3.17;1.80;;;22.90;39.20;;;;;;5056199;28;20494;-75
2022/06/17 07:59:53;;;;;;;9.23;1.87;;;23.00;37.90;;;;;;5057065;28;20439;-75
2022/06/17 08:02:39;;;;;;;6.67;1.67;;;23.10;39.10;;;;;;5057361;28;20484;-75
2022/06/17 08:05:25;;;;;;;18.87;3.43;;;23.10;38.80;;;;;;5058739;28;20519;-76
2022/06/17 08:08:15;;;;;;;8.30;1.80;;;23.20;39.00;;;;;;5058711;28;20426;-76
2022/06/17 08:11:02;;;;;;;6.17;1.70;;;23.30;39.70;;;;;;5057222;28;20471;-75
2022/06/17 08:13:49;;;;;;;4.77;1.70;;;23.40;36.10;;;;;;5057262;28;20447;-76
2022/06/17 08:16:36;;;;;;;26.20;4.30;;;23.50;33.60;;;;;;5055778;28;20447;-76
2022/06/17 08:19:22;;;;;;;5.13;2.17;;;23.40;31.70;;;;;;5059398;28;20450;-76
2022/06/17 08:22:08;;;;;;;5.40;1.47;;;23.50;32.30;;;;;;5054855;28;20479;-76
2022/06/17 08:24:56;;;;;;;4.20;1.80;;;23.50;35.40;;;;;;5056270;28;20784;-76
2022/06/17 08:27:43;;;;;;;30.90;7.73;;;23.60;32.80;;;;;;5057482;28;20443;-75
2022/06/17 08:30:32;;;;;;;20.53;4.67;;;23.60;34.50;;;;;;5059042;28;20459;-75
2022/06/17 08:33:25;;;;;;;4.50;2.10;;;23.80;33.50;;;;;;5052637;28;20467;-75
2022/06/17 08:36:13;;;;;;;3.43;1.40;;;23.80;32.50;;;;;;5058628;28;20455;-76
2022/06/17 08:39:02;;;;;;;3.27;1.60;;;24.00;32.20;;;;;;5053326;28;20439;-75
2022/06/17 08:41:57;;;;;;;6.57;2.10;;;24.10;31.90;;;;;;5052425;28;20521;-75
2022/06/17 08:44:52;;;;;;;6.17;1.73;;;24.10;31.80;;;;;;5051717;28;20447;-75
2022/06/17 08:47:48;;;;;;;27.53;2.30;;;24.00;31.30;;;;;;5058767;28;20519;-75
2022/06/17 08:50:48;;;;;;;14.03;1.93;;;24.20;31.70;;;;;;5054708;28;20541;-75
2022/06/17 08:54:13;;;;;;;3.00;1.40;;;24.30;29.90;;;;;;5049810;28;20459;-75
2022/06/17 08:57:11;;;;;;;10.30;1.90;;;24.30;28.60;;;;;;5016564;28;20449;-76
2022/06/17 09:00:06;;;;;;;3.23;1.40;;;24.30;29.20;;;;;;5056525;28;20434;-75
2022/06/17 09:03:12;;;;;;;6.43;1.53;;;24.40;30.00;;;;;;5047761;28;20542;-75
2022/06/17 09:06:13;;;;;;;3.20;1.47;;;24.40;30.00;;;;;;5054353;28;20448;-76
2022/06/17 09:09:22;;;;;;;7.33;2.10;;;24.50;29.90;;;;;;5053135;28;20980;-75
2022/06/17 09:12:16;;;;;;;3.10;1.27;;;24.60;30.10;;;;;;5048550;28;20495;-75
2022/06/17 09:15:12;;;;;;;4.93;1.90;;;24.80;29.00;;;;;;5053686;28;20597;-74
2022/06/17 09:18:11;;;;;;;3.20;1.60;;;24.80;30.00;;;;;;5056881;28;20837;-75
2022/06/17 09:21:05;;;;;;;8.57;1.77;;;24.80;29.30;;;;;;5051180;28;20447;-74
2022/06/17 09:23:53;;;;;;;4.00;1.53;;;24.70;28.90;;;;;;5054728;28;20498;-74
2022/06/17 09:26:45;;;;;;;4.20;1.50;;;24.70;29.90;;;;;;5049550;28;20566;-75
2022/06/17 09:29:39;;;;;;;3.93;1.33;;;24.80;30.30;;;;;;5057265;28;20450;-75
2022/06/17 09:32:30;;;;;;;5.70;1.53;;;24.90;30.40;;;;;;5048755;28;20567;-75
2022/06/17 09:35:23;;;;;;;15.90;2.03;;;25.10;30.60;;;;;;5063709;28;20439;-75
2022/06/17 09:38:12;;;;;;;2.80;1.47;;;25.20;30.30;;;;;;5051654;28;21054;-72
2022/06/17 09:41:02;;;;;;;3.17;1.70;;;25.30;28.90;;;;;;5046223;28;20440;-73
2022/06/17 09:43:54;;;;;;;2.83;1.53;;;25.20;26.80;;;;;;5047912;28;20440;-73
2022/06/17 09:46:49;;;;;;;9.97;2.20;;;25.10;29.40;;;;;;5050017;28;20574;-73
2022/06/17 09:49:41;;;;;;;3.40;1.53;;;25.20;27.80;;;;;;5057770;28;20512;-73
2022/06/17 09:52:32;;;;;;;3.00;1.93;;;25.00;28.00;;;;;;5045511;28;20487;-72
2022/06/17 09:55:22;;;;;;;5.30;1.70;;;25.00;28.00;;;;;;5052049;28;20455;-72
2022/06/17 09:58:13;;;;;;;2.73;1.43;;;25.10;28.60;;;;;;5052574;28;20443;-72
2022/06/17 10:00:59;;;;;;;2.70;1.37;;;25.20;27.90;;;;;;5045258;28;20976;-72
2022/06/17 10:03:46;;;;;;;3.17;1.67;;;25.30;27.50;;;;;;5055958;28;20456;-73
2022/06/17 10:06:40;;;;;;;2.87;1.50;;;25.40;27.50;;;;;;5060405;28;21058;-72
2022/06/17 10:09:37;;;;;;;7.37;1.57;;;25.50;25.90;;;;;;5054107;28;20510;-73
2022/06/17 10:12:35;;;;;;;6.90;1.50;;;25.40;26.60;;;;;;5050326;28;20469;-73
2022/06/17 10:15:32;;;;;;;3.27;1.43;;;25.40;27.20;;;;;;5061169;28;20420;-73
2022/06/17 10:18:32;;;;;;;2.90;1.37;;;25.60;25.90;;;;;;5060305;28;20447;-72
2022/06/17 10:21:32;;;;;;;3.10;1.60;;;25.70;26.70;;;;;;5046207;28;20440;-73
2022/06/17 10:24:30;;;;;;;4.17;1.80;;;25.60;26.60;;;;;;5051733;28;20599;-73
2022/06/17 10:27:29;;;;;;;3.43;1.37;;;25.50;25.60;;;;;;5049436;28;20456;-72
2022/06/17 10:30:21;;;;;;;2.50;1.23;;;25.70;27.40;;;;;;5048704;28;20447;-73
2022/06/17 10:33:10;;;;;;;4.77;1.53;;;25.70;26.10;;;;;;5054485;28;20463;-73
2022/06/17 10:35:56;;;;;;;3.00;1.47;;;25.80;25.80;;;;;;5046301;28;20593;-72
2022/06/17 10:38:47;;;;;;;3.87;1.33;;;26.00;26.30;;;;;;5045230;28;20599;-74
2022/06/17 10:41:33;;;;;;;5.73;1.63;;;26.20;26.90;;;;;;5050800;28;20468;-72
2022/06/17 10:44:23;;;;;;;27.60;2.20;;;26.30;25.70;;;;;;5057487;28;20457;-71
2022/06/17 10:47:31;;;;;;;3.83;1.33;;;26.50;26.20;;;;;;5049394;28;21026;-71
2022/06/17 10:50:20;;;;;;;3.70;1.50;;;26.30;24.00;;;;;;5053861;28;20607;-72
2022/06/17 10:53:14;;;;;;;2.83;1.20;;;26.40;24.90;;;;;;5050624;28;20432;-71
2022/06/17 10:56:05;;;;;;;3.23;1.37;;;26.40;24.30;;;;;;5051651;28;20432;-72
2022/06/17 10:59:00;;;;;;;3.63;1.40;;;26.60;24.90;;;;;;5050540;28;20945;-72
2022/06/17 11:01:52;;;;;;;3.07;1.60;;;26.60;24.50;;;;;;5045078;28;20615;-72
2022/06/17 11:04:39;;;;;;;2.90;1.47;;;26.80;26.90;;;;;;5052831;28;20967;-71
2022/06/17 11:07:30;;;;;;;3.00;1.50;;;26.90;24.10;;;;;;5045292;28;20440;-71
2022/06/17 11:10:22;;;;;;;3.30;1.50;;;27.00;24.40;;;;;;5044319;28;20468;-71
2022/06/17 11:13:15;;;;;;;4.43;1.43;;;27.00;24.20;;;;;;5052175;28;20474;-71
2022/06/17 11:16:01;;;;;;;2.97;1.53;;;27.10;23.50;;;;;;5050832;28;20471;-71
2022/06/17 11:18:54;;;;;;;3.43;1.40;;;27.10;23.10;;;;;;5056859;28;20450;-72
2022/06/17 11:21:46;;;;;;;2.90;1.30;;;27.10;22.70;;;;;;5045276;28;20467;-72
2022/06/17 11:24:35;;;;;;;2.30;1.30;;;27.20;23.90;;;;;;5050064;28;20424;-72
2022/06/17 11:27:29;;;;;;;5.40;1.20;;;27.40;22.50;;;;;;5049994;28;20574;-71
2022/06/17 11:30:26;;;;;;;3.90;1.30;;;27.50;24.30;;;;;;5055663;28;20438;-71
2022/06/17 11:33:24;;;;;;;3.97;1.50;;;27.60;23.00;;;;;;5049337;28;20447;-71
2022/06/17 11:36:16;;;;;;;4.50;2.00;;;27.50;22.50;;;;;;5065052;28;20577;-71
2022/06/17 11:39:28;;;;;;;3.20;1.50;;;27.50;23.70;;;;;;5061146;28;20980;-72
2022/06/17 11:42:17;;;;;;;3.13;1.63;;;27.60;24.20;;;;;;5062640;28;20459;-72
2022/06/17 11:45:06;;;;;;;2.53;1.37;;;27.60;23.90;;;;;;5052446;28;20435;-71
2022/06/17 11:47:59;;;;;;;3.83;1.40;;;27.80;24.50;;;;;;5053842;28;20529;-72
2022/06/17 11:51:02;;;;;;;4.00;1.83;;;27.90;25.30;;;;;;5046866;28;20522;-72
2022/06/17 11:53:52;;;;;;;4.20;1.60;;;28.10;25.90;;;;;;5049550;28;20586;-72
2022/06/17 11:56:40;;;;;;;3.80;1.70;;;28.30;25.70;;;;;;5049784;28;20563;-71
2022/06/17 11:59:29;;;;;;;4.40;1.70;;;28.20;23.70;;;;;;5052532;28;20444;-71
2022/06/17 12:02:15;;;;;;;2.70;1.23;;;28.00;23.20;;;;;;5053702;28;20470;-72
2022/06/17 12:05:10;;;;;;;3.50;1.63;;;28.20;24.10;;;;;;5055815;28;20450;-72
2022/06/17 12:08:01;;;;;;;6.73;1.77;;;28.30;22.80;;;;;;5052120;28;20812;-72
2022/06/17 12:10:49;;;;;;;4.23;1.57;;;28.30;23.30;;;;;;5051091;28;20451;-71
2022/06/17 12:13:39;;;;;;;8.87;1.70;;;28.40;23.10;;;;;;5063511;28;20947;-72
2022/06/17 12:16:31;;;;;;;2.50;1.37;;;28.40;22.30;;;;;;5047109;28;20454;-71
2022/06/17 12:19:22;;;;;;;5.50;1.57;;;28.50;22.50;;;;;;5050223;28;20454;-71
2022/06/17 12:22:16;;;;;;;4.03;1.37;;;28.40;21.10;;;;;;5060405;28;21054;-72
2022/06/17 12:25:10;;;;;;;4.53;1.40;;;28.50;22.90;;;;;;5048611;28;20612;-72
2022/06/17 12:28:01;;;;;;;4.33;1.80;;;28.60;21.30;;;;;;5053511;28;20443;-71
2022/06/17 12:30:58;;;;;;;5.40;1.40;;;28.80;22.50;;;;;;5048185;28;20529;-72
2022/06/17 12:33:51;;;;;;;5.13;1.40;;;28.90;21.50;;;;;;5053058;28;21220;-71
2022/06/17 12:36:42;;;;;;;6.53;1.60;;;29.10;22.10;;;;;;5052971;28;20448;-72
2022/06/17 12:39:36;;;;;;;6.13;1.60;;;29.30;21.70;;;;;;5048146;28;20447;-71
2022/06/17 12:42:27;;;;;;;3.30;1.30;;;29.50;21.90;;;;;;5052719;28;20459;-72
2022/06/17 12:45:22;;;;;;;4.13;1.77;;;29.50;21.80;;;;;;5051920;28;20574;-71
2022/06/17 12:48:22;;;;;;;3.20;1.67;;;29.40;21.80;;;;;;5051737;28;20467;-71
2022/06/17 12:54:27;;;;;;;3.67;1.17;;;29.50;20.70;;;;;;5051952;28;20478;-72
2022/06/17 12:57:21;;;;;;;4.90;1.27;;;29.60;21.20;;;;;;5060493;28;20443;-72
2022/06/17 13:00:10;;;;;;;3.37;1.30;;;29.80;20.40;;;;;;5049554;28;20804;-73
2022/06/17 13:03:16;;;;;;;3.27;1.40;;;29.90;21.90;;;;;;5060790;28;20479;-72
2022/06/17 13:06:12;;;;;;;2.60;1.30;;;30.00;19.20;;;;;;5050067;28;20432;-72
2022/06/17 13:09:04;;;;;;;5.20;1.60;;;30.00;19.80;;;;;;5049230;28;20960;-71
2022/06/17 13:12:02;;;;;;;3.13;1.40;;;30.10;20.50;;;;;;5062355;28;21343;-72
2022/06/17 13:14:57;;;;;;;3.70;1.53;;;30.30;20.00;;;;;;5049826;28;20448;-72
2022/06/17 13:17:48;;;;;;;3.37;1.30;;;30.50;19.70;;;;;;5052050;28;20455;-72
2022/06/17 13:20:42;;;;;;;2.57;1.20;;;30.50;18.70;;;;;;5047218;28;20819;-71
2022/06/17 13:23:32;;;;;;;4.20;1.80;;;30.40;18.60;;;;;;5059403;28;20494;-71
2022/06/17 13:26:21;;;;;;;3.00;1.40;;;30.40;19.20;;;;;;5051499;28;20589;-72
2022/06/17 13:29:19;;;;;;;4.00;1.50;;;30.40;21.90;;;;;;5048292;28;20455;-72
2022/06/17 13:32:11;;;;;;;3.47;1.33;;;30.40;20.70;;;;;;5052373;28;20856;-72
2022/06/17 13:35:06;;;;;;;3.63;1.40;;;30.40;19.30;;;;;;5050379;28;20447;-72
2022/06/17 13:37:59;;;;;;;2.90;1.43;;;30.50;20.00;;;;;;5045938;28;20529;-71
2022/06/17 13:40:48;;;;;;;3.17;1.10;;;30.50;18.80;;;;;;5050503;28;20431;-72
2022/06/17 13:43:40;;;;;;;4.33;1.30;;;30.50;19.50;;;;;;5050988;28;20450;-72
2022/06/17 13:46:33;;;;;;;4.80;1.43;;;30.80;20.30;;;;;;5051411;28;21465;-72
2022/06/17 13:49:33;;;;;;;6.10;1.73;;;30.80;17.40;;;;;;5047318;28;20548;-72
2022/06/17 13:52:28;;;;;;;2.70;1.30;;;30.80;18.30;;;;;;5054170;28;20479;-71
2022/06/17 13:55:27;;;;;;;2.87;1.20;;;30.80;19.20;;;;;;5049773;28;20427;-72
2022/06/17 13:58:20;;;;;;;2.47;0.80;;;30.90;17.70;;;;;;5050269;28;20824;-72
2022/06/17 14:01:29;;;;;;;2.33;1.20;;;31.10;16.50;;;;;;5050232;28;20463;-72
2022/06/17 14:04:23;;;;;;;2.33;1.00;;;31.20;16.20;;;;;;5053752;28;20698;-72
2022/06/17 14:07:09;;;;;;;3.60;1.07;;;31.20;17.20;;;;;;5049029;28;20440;-71
2022/06/17 14:09:54;;;;;;;3.10;1.47;;;31.20;17.50;;;;;;5045223;28;20435;-72
2022/06/17 14:12:44;;;;;;;3.20;1.43;;;31.20;17.80;;;;;;5050495;28;20467;-72
2022/06/17 14:15:33;;;;;;;3.47;1.40;;;31.40;18.50;;;;;;5049652;28;20582;-71
2022/06/17 14:18:23;;;;;;;6.43;1.10;;;31.40;18.40;;;;;;5046866;28;20620;-72
2022/06/17 14:21:18;;;;;;;2.53;0.90;;;31.20;16.30;;;;;;5048978;28;20578;-72
2022/06/17 14:24:04;;;;;;;2.40;1.00;;;31.20;17.50;;;;;;5050186;28;20456;-72
2022/06/17 14:26:55;;;;;;;2.53;1.00;;;31.00;16.10;;;;;;5046745;28;20976;-72
2022/06/17 14:29:41;;;;;;;2.33;1.00;;;31.00;16.20;;;;;;5047055;28;20451;-72
2022/06/17 14:32:55;;;;;;;2.67;1.13;;;30.80;16.30;;;;;;5053151;28;20517;-71
2022/06/17 14:35:50;;;;;;;2.37;1.00;;;31.00;16.90;;;;;;5056577;28;20454;-70
2022/06/17 14:38:41;;;;;;;6.80;1.23;;;31.20;15.90;;;;;;5037101;28;20452;-72
2022/06/17 14:42:05;;;;;;;2.40;1.00;;;31.40;15.50;;;;;;5055140;28;20464;-72
2022/06/17 14:45:11;;;;;;;4.13;1.30;;;31.60;16.10;;;;;;5045523;28;20439;-72
2022/06/17 14:48:04;;;;;;;5.13;1.50;;;31.70;15.50;;;;;;5042127;28;20753;-73
2022/06/17 14:50:56;;;;;;;2.97;1.07;;;31.80;16.40;;;;;;5063965;28;20530;-73
2022/06/17 14:53:48;;;;;;;4.37;0.97;;;31.80;15.20;;;;;;5051618;28;20475;-73